createdAt,value
2023-05-22T00:01:32.493Z,100981.34
2023-05-22T00:04:04.887Z,100986.59
2023-05-22T00:06:33.993Z,100984.83
2023-05-22T00:09:03.161Z,100980.48
2023-05-22T00:11:34.285Z,100979.63
2023-05-22T00:14:05.026Z,100980.50
2023-05-22T00:16:33.927Z,100977.89
2023-05-22T00:19:04.504Z,100976.16
2023-05-22T00:21:37.139Z,100963.14
2023-05-22T00:24:07.648Z,100969.23
2023-05-22T00:26:36.654Z,100962.30
2023-05-22T00:29:05.908Z,100964.92
2023-05-22T00:31:38.272Z,100970.13
2023-05-22T00:34:07.332Z,100963.19
2023-05-22T00:36:36.545Z,100962.35
2023-05-22T00:39:05.711Z,100961.47
2023-05-22T00:41:34.924Z,100961.49
2023-05-22T00:44:04.415Z,100966.70
2023-05-22T00:46:36.649Z,100964.97
2023-05-22T00:49:07.000Z,100968.42
2023-05-22T00:51:36.762Z,100971.91
2023-05-22T00:54:07.199Z,100963.25
2023-05-22T00:56:36.196Z,100958.91
2023-05-22T00:59:05.603Z,100961.50
2023-05-22T01:01:38.202Z,100960.64
2023-05-22T01:04:09.527Z,100968.46
2023-05-22T01:06:40.867Z,100965.84
2023-05-22T01:09:14.297Z,100965.86
2023-05-22T01:11:58.957Z,100968.45
2023-05-22T01:14:40.462Z,100965.01
2023-05-22T01:17:22.490Z,100965.01
2023-05-22T01:20:06.704Z,100962.38
2023-05-22T01:23:00.191Z,100967.59
2023-05-22T01:26:11.143Z,100964.12
2023-05-22T01:29:03.176Z,100964.98
2023-05-22T01:31:36.824Z,100962.39
2023-05-22T01:34:12.374Z,100967.62
2023-05-22T01:36:46.540Z,100967.60
2023-05-22T01:39:18.053Z,100967.61
2023-05-22T01:41:47.902Z,100961.52
2023-05-22T01:44:19.561Z,100963.25
2023-05-22T01:46:48.635Z,100969.34
2023-05-22T01:49:19.988Z,100965.01
2023-05-22T01:51:55.504Z,100973.67
2023-05-22T01:54:36.334Z,100971.07
2023-05-22T01:57:16.779Z,100965.85
2023-05-22T01:59:50.197Z,100970.20
2023-05-22T02:02:21.363Z,100968.45
2023-05-22T02:04:58.594Z,100971.94
2023-05-22T02:07:30.253Z,100973.64
2023-05-22T02:10:03.539Z,100966.70
2023-05-22T02:12:38.195Z,100965.85
2023-05-22T02:15:13.741Z,100965.83
2023-05-22T02:17:52.915Z,100977.99
2023-05-22T02:20:25.678Z,100968.42
2023-05-22T02:22:54.987Z,100975.38
2023-05-22T02:25:26.189Z,100978.84
2023-05-22T02:28:07.262Z,100966.69
2023-05-22T02:30:41.204Z,100973.63
2023-05-22T02:33:14.457Z,100974.47
2023-05-22T02:35:48.019Z,100965.79
2023-05-22T02:38:20.118Z,100961.45
2023-05-22T02:40:49.451Z,100954.50
2023-05-22T02:43:18.664Z,100964.05
2023-05-22T02:45:47.640Z,100960.59
2023-05-22T02:48:17.826Z,100960.59
2023-05-22T02:50:48.205Z,100951.91
2023-05-22T02:53:20.392Z,100957.14
2023-05-22T02:55:49.262Z,100952.78
2023-05-22T02:58:18.630Z,100958.00
2023-05-22T03:00:49.362Z,100955.39
2023-05-22T03:03:21.594Z,100951.95
2023-05-22T03:05:53.389Z,100947.62
2023-05-22T03:08:25.912Z,100941.53
2023-05-22T03:10:56.628Z,100942.41
2023-05-22T03:13:28.286Z,100945.01
2023-05-22T03:16:01.933Z,100941.54
2023-05-22T03:18:36.890Z,100934.60
2023-05-22T03:21:06.450Z,100938.08
2023-05-22T03:23:36.573Z,100938.08
2023-05-22T03:26:05.545Z,100940.69
2023-05-22T03:28:38.725Z,100937.20
2023-05-22T03:31:08.938Z,100937.20
2023-05-22T03:33:47.347Z,100936.33
2023-05-22T03:36:24.248Z,100942.42
2023-05-22T03:38:53.932Z,100936.33
2023-05-22T03:41:23.140Z,100937.20
2023-05-22T03:43:53.766Z,100929.38
2023-05-22T03:46:26.688Z,100937.22
2023-05-22T03:48:56.312Z,100938.09
2023-05-22T03:51:30.801Z,100944.16
2023-05-22T03:54:05.108Z,100940.65
2023-05-22T03:56:34.757Z,100945.02
2023-05-22T03:59:08.216Z,100945.84
2023-05-22T04:01:38.939Z,100938.87
2023-05-22T04:04:11.725Z,100942.33
2023-05-22T04:06:42.911Z,100942.23
2023-05-22T04:09:19.545Z,100935.22
2023-05-22T04:11:49.265Z,100940.81
2023-05-22T04:14:22.546Z,100932.00
2023-05-22T04:16:52.509Z,100927.53
2023-05-22T04:19:27.610Z,100935.41
2023-05-22T04:22:00.076Z,100934.92
2023-05-22T04:24:32.573Z,100927.93
2023-05-22T04:27:10.181Z,100924.44
2023-05-22T04:29:44.407Z,100922.72
2023-05-22T04:32:17.979Z,100919.09
2023-05-22T04:34:49.719Z,100912.05
2023-05-22T04:37:20.489Z,100914.17
2023-05-22T04:39:57.581Z,100914.36
2023-05-22T04:42:27.790Z,100913.83
2023-05-22T04:45:00.906Z,100915.31
2023-05-22T04:47:36.600Z,100903.50
2023-05-22T04:50:13.905Z,100904.80
2023-05-22T04:52:45.279Z,100904.02
2023-05-22T04:55:17.272Z,100901.75
2023-05-22T04:57:48.768Z,100897.25
2023-05-22T05:00:28.488Z,100900.78
2023-05-22T05:03:00.771Z,100900.95
2023-05-22T05:05:31.135Z,100899.67
2023-05-22T05:08:10.261Z,100902.06
2023-05-22T05:10:43.567Z,100900.81
2023-05-22T05:13:11.916Z,100904.98
2023-05-22T05:15:43.325Z,100907.27
2023-05-22T05:18:12.793Z,100904.94
2023-05-22T05:20:42.032Z,100912.07
2023-05-22T05:23:13.104Z,100907.80
2023-05-22T05:25:45.228Z,100913.12
2023-05-22T05:28:16.324Z,100910.75
2023-05-22T05:30:46.305Z,100910.45
2023-05-22T05:33:33.008Z,100912.31
2023-05-22T05:36:16.746Z,100908.83
2023-05-22T05:38:47.611Z,100905.89
2023-05-22T05:41:19.648Z,100906.77
2023-05-22T05:43:59.649Z,100912.71
2023-05-22T05:46:33.090Z,100914.13
2023-05-22T05:49:09.678Z,100911.57
2023-05-22T05:51:39.208Z,100913.70
2023-05-22T05:54:09.236Z,100908.64
2023-05-22T05:56:38.627Z,100910.13
2023-05-22T05:59:13.017Z,100902.67
2023-05-22T06:02:00.405Z,100901.93
2023-05-22T06:04:33.312Z,100902.69
2023-05-22T06:07:04.863Z,100910.52
2023-05-22T06:09:47.845Z,100900.80
2023-05-22T06:12:27.167Z,100908.20
2023-05-22T06:14:58.710Z,100903.19
2023-05-22T06:17:27.781Z,100898.88
2023-05-22T06:19:59.682Z,100893.35
2023-05-22T06:22:30.181Z,100897.66
2023-05-22T06:25:00.838Z,100894.86
2023-05-22T06:27:30.557Z,100903.71
2023-05-22T06:30:01.562Z,100894.36
2023-05-22T06:32:33.634Z,100894.87
2023-05-22T06:35:11.324Z,100893.70
2023-05-22T06:37:42.660Z,100894.66
2023-05-22T06:40:17.461Z,100897.78
2023-05-22T06:42:55.684Z,100906.17
2023-05-22T06:45:46.185Z,100899.43
2023-05-22T06:48:27.162Z,100902.34
2023-05-22T06:51:19.000Z,100906.42
2023-05-22T06:53:51.471Z,100901.59
2023-05-22T06:59:12.883Z,100893.05
2023-05-22T07:02:00.909Z,100902.23
2023-05-22T07:04:49.423Z,100892.38
2023-05-22T07:07:23.604Z,100899.76
2023-05-22T07:09:52.865Z,100892.88
2023-05-22T07:12:25.626Z,100894.34
2023-05-22T07:14:56.937Z,100895.45
2023-05-22T07:17:29.517Z,100892.88
2023-05-22T07:19:59.407Z,100891.58
2023-05-22T07:22:28.604Z,100889.42
2023-05-22T07:24:58.638Z,100889.42
2023-05-22T07:27:31.182Z,100884.98
2023-05-22T07:30:03.107Z,100887.35
2023-05-22T07:32:32.444Z,100891.25
2023-05-22T07:35:04.415Z,100885.64
2023-05-22T07:37:35.516Z,100882.73
2023-05-22T07:40:05.745Z,100892.02
2023-05-22T07:42:34.907Z,100892.77
2023-05-22T07:45:05.674Z,100886.26
2023-05-22T07:47:35.317Z,100888.85
2023-05-22T07:50:09.095Z,100886.01
2023-05-22T07:52:40.460Z,100883.97
2023-05-22T07:55:12.900Z,100878.03
2023-05-22T07:57:52.690Z,100878.03
2023-05-22T08:00:29.158Z,100885.59
2023-05-22T08:03:06.966Z,100878.30
2023-05-22T08:05:35.910Z,100879.70
2023-05-22T08:08:11.577Z,100882.88
2023-05-22T08:10:52.258Z,100878.14
2023-05-22T08:13:30.179Z,100878.59
2023-05-22T08:16:02.085Z,100872.17
2023-05-22T08:18:32.666Z,100872.52
2023-05-22T08:21:02.140Z,100865.89
2023-05-22T08:23:35.847Z,100866.67
2023-05-22T08:26:04.013Z,100870.61
2023-05-22T08:28:35.296Z,100862.16
2023-05-22T08:31:10.286Z,100858.44
2023-05-22T08:33:39.589Z,100862.41
2023-05-22T08:36:09.243Z,100866.08
2023-05-22T08:38:38.451Z,100856.76
2023-05-22T08:41:09.425Z,100860.37
2023-05-22T08:43:40.927Z,100858.39
2023-05-22T08:46:10.817Z,100858.64
2023-05-22T08:48:42.196Z,100849.60
2023-05-22T08:51:18.720Z,100853.59
2023-05-22T08:53:53.903Z,100849.11
2023-05-22T08:56:23.169Z,100848.02
2023-05-22T08:58:53.155Z,100850.70
2023-05-22T09:01:23.565Z,100850.64
2023-05-22T09:03:54.078Z,100847.09
2023-05-22T09:06:23.418Z,100842.55
2023-05-22T09:08:52.945Z,100838.06
2023-05-22T09:11:22.721Z,100833.73
2023-05-22T09:13:52.427Z,100838.38
2023-05-22T09:16:27.357Z,100832.30
2023-05-22T09:18:58.029Z,100826.05
2023-05-22T09:21:30.719Z,100825.92
2023-05-22T09:24:01.858Z,100820.00
2023-05-22T09:26:35.441Z,100820.67
2023-05-22T09:29:05.370Z,100825.31
2023-05-22T09:31:42.830Z,100820.44
2023-05-22T09:34:14.532Z,100820.16
2023-05-22T09:36:49.355Z,100819.44
2023-05-22T09:39:20.468Z,100818.86
2023-05-22T09:41:51.496Z,100813.51
2023-05-22T09:44:26.228Z,100814.13
2023-05-22T09:46:56.646Z,100808.91
2023-05-22T09:49:28.787Z,100813.06
2023-05-22T09:51:58.797Z,100806.34
2023-05-22T09:54:29.693Z,100814.72
2023-05-22T09:57:03.217Z,100809.57
2023-05-22T09:59:39.671Z,100803.94
2023-05-22T10:02:10.611Z,100808.84
2023-05-22T10:04:44.168Z,100808.55
2023-05-22T10:07:14.579Z,100811.34
2023-05-22T10:09:51.052Z,100806.88
2023-05-22T10:12:25.286Z,100812.02
2023-05-22T10:14:56.850Z,100806.80
2023-05-22T10:17:26.727Z,100795.14
2023-05-22T10:19:57.901Z,100809.78
2023-05-22T10:22:31.578Z,100804.34
2023-05-22T10:25:02.119Z,100805.82
2023-05-22T10:27:31.616Z,100797.28
2023-05-22T10:30:13.333Z,100806.80
2023-05-22T10:32:48.254Z,100795.50
2023-05-22T10:35:24.091Z,100791.52
2023-05-22T10:37:55.485Z,100793.31
2023-05-22T10:40:31.349Z,100791.60
2023-05-22T10:43:02.336Z,100791.55
2023-05-22T10:45:33.640Z,100787.73
2023-05-22T10:48:11.537Z,100785.90
2023-05-22T10:50:50.567Z,100789.91
2023-05-22T10:53:21.289Z,100782.80
2023-05-22T10:55:51.637Z,100781.77
2023-05-22T10:58:27.324Z,100775.78
2023-05-22T11:01:14.275Z,100767.62
2023-05-22T11:03:55.721Z,100776.30
2023-05-22T11:06:35.787Z,100766.55
2023-05-22T11:09:27.014Z,100773.16
2023-05-22T11:12:20.077Z,100768.23
2023-05-22T11:14:51.314Z,100762.66
2023-05-22T11:17:23.843Z,100765.80
2023-05-22T11:20:01.191Z,100769.41
2023-05-22T11:22:38.875Z,100751.87
2023-05-22T11:25:16.951Z,100750.22
2023-05-22T11:27:47.135Z,100741.10
2023-05-22T11:30:25.271Z,100739.34
2023-05-22T11:32:54.433Z,100740.26
2023-05-22T11:35:23.884Z,100734.92
2023-05-22T11:37:54.525Z,100732.93
2023-05-22T11:40:28.740Z,100728.50
2023-05-22T11:43:01.286Z,100726.93
2023-05-22T11:45:38.985Z,100731.43
2023-05-22T11:48:15.618Z,100736.16
2023-05-22T11:50:46.016Z,100736.84
2023-05-22T11:53:18.740Z,100728.28
2023-05-22T11:55:52.551Z,100731.59
2023-05-22T11:58:29.260Z,100733.10
2023-05-22T12:01:03.241Z,100734.20
2023-05-22T12:03:35.331Z,100736.82
2023-05-22T12:06:06.435Z,100727.20
2023-05-22T12:08:38.534Z,100723.05
2023-05-22T12:11:07.718Z,100721.21
2023-05-22T12:13:36.717Z,100721.95
2023-05-22T12:16:19.184Z,100720.63
2023-05-22T12:18:52.052Z,100717.19
2023-05-22T12:21:27.026Z,100715.61
2023-05-22T12:23:56.170Z,100708.08
2023-05-22T12:26:33.038Z,100710.86
2023-05-22T12:29:02.553Z,100699.45
2023-05-22T12:31:38.096Z,100702.59
2023-05-22T12:34:08.941Z,100691.64
2023-05-22T12:36:40.917Z,100709.42
2023-05-22T12:39:11.450Z,100693.95
2023-05-22T12:41:40.759Z,100700.78
2023-05-22T12:44:10.023Z,100701.11
2023-05-22T12:46:41.235Z,100694.80
2023-05-22T12:49:10.876Z,100686.89
2023-05-22T12:51:39.783Z,100689.70
2023-05-22T12:54:08.664Z,100695.47
2023-05-22T12:56:40.716Z,100692.23
2023-05-22T12:59:10.112Z,100692.84
2023-05-22T13:01:39.515Z,100695.05
2023-05-22T13:04:08.382Z,100690.66
2023-05-22T13:06:37.726Z,100684.06
2023-05-22T13:09:06.604Z,100680.05
2023-05-22T13:11:36.432Z,100679.45
2023-05-22T13:14:05.339Z,100682.03
2023-05-22T13:16:35.299Z,100682.37
2023-05-22T13:19:04.453Z,100681.77
2023-05-22T13:21:33.695Z,100676.30
2023-05-22T13:24:03.818Z,100672.09
2023-05-22T13:26:35.121Z,100677.98
2023-05-22T13:29:04.410Z,100681.23
2023-05-22T13:31:38.933Z,100677.14
2023-05-22T13:34:08.888Z,100671.21
2023-05-22T13:36:38.107Z,100674.30
2023-05-22T13:39:07.141Z,100677.91
2023-05-22T13:41:36.251Z,100675.62
2023-05-22T13:44:07.690Z,100666.05
2023-05-22T13:46:40.611Z,100664.51
2023-05-22T13:49:10.696Z,100661.09
2023-05-22T13:51:40.140Z,100659.57
2023-05-22T13:54:09.774Z,100654.70
2023-05-22T13:56:38.878Z,100649.38
2023-05-22T13:59:10.580Z,100661.03
2023-05-22T14:01:40.133Z,100652.80
2023-05-22T14:04:09.502Z,100649.98
2023-05-22T14:06:38.951Z,100649.58
2023-05-22T14:09:09.141Z,100646.51
2023-05-22T14:11:38.451Z,100644.67
2023-05-22T14:14:08.706Z,100650.55
2023-05-22T14:16:39.942Z,100639.85
2023-05-22T14:19:09.153Z,100639.95
2023-05-22T14:21:39.217Z,100640.91
2023-05-22T14:24:10.846Z,100636.59
2023-05-22T14:26:40.787Z,100639.60
2023-05-22T14:29:11.231Z,100643.42
2023-05-22T14:31:51.211Z,100638.08
2023-05-22T14:34:21.086Z,100636.48
2023-05-22T14:36:52.894Z,100632.11
2023-05-22T14:39:24.153Z,100634.16
2023-05-22T14:41:53.444Z,100625.73
2023-05-22T14:44:23.632Z,100628.40
2023-05-22T14:46:54.134Z,100624.56
2023-05-22T14:49:24.240Z,100625.44
2023-05-22T14:51:54.473Z,100626.64
2023-05-22T14:54:23.350Z,100624.81
2023-05-22T14:56:52.541Z,100622.68
2023-05-22T14:59:21.764Z,100613.20
2023-05-22T15:01:51.811Z,100621.62
2023-05-22T15:04:22.222Z,100614.44
2023-05-22T15:06:55.996Z,100613.05
2023-05-22T15:09:25.231Z,100620.22
2023-05-22T15:11:55.222Z,100621.19
2023-05-22T15:14:24.175Z,100614.02
2023-05-22T15:16:53.428Z,100610.80
2023-05-22T15:19:22.418Z,100610.16
2023-05-22T15:21:51.520Z,100611.11
2023-05-22T15:24:20.884Z,100599.81
2023-05-22T15:26:51.018Z,100605.84
2023-05-22T15:29:20.938Z,100605.17
2023-05-22T15:31:50.372Z,100605.98
2023-05-22T15:34:19.500Z,100605.84
2023-05-22T15:36:55.347Z,100598.34
2023-05-22T15:39:24.878Z,100603.33
2023-05-22T15:42:05.163Z,100589.94
2023-05-22T15:44:35.350Z,100596.92
2023-05-22T15:47:04.671Z,100594.06
2023-05-22T15:49:36.791Z,100591.99
2023-05-22T15:52:06.345Z,100589.70
2023-05-22T15:54:35.229Z,100588.09
2023-05-22T15:57:07.284Z,100585.91
2023-05-22T15:59:36.205Z,100578.98
2023-05-22T16:02:06.269Z,100567.69
2023-05-22T16:04:35.200Z,100570.64
2023-05-22T16:07:04.562Z,100575.02
2023-05-22T16:09:35.954Z,100578.44
2023-05-22T16:12:06.044Z,100577.56
2023-05-22T16:14:35.036Z,100571.48
2023-05-22T16:17:04.982Z,100568.81
2023-05-22T16:19:36.064Z,100573.38
2023-05-22T16:22:06.248Z,100562.08
2023-05-22T16:24:35.378Z,100567.69
2023-05-22T16:27:07.605Z,100565.31
2023-05-22T16:29:38.923Z,100558.68
2023-05-22T16:32:11.220Z,100554.48
2023-05-22T16:34:40.139Z,100560.86
2023-05-22T16:37:09.510Z,100561.14
2023-05-22T16:39:39.356Z,100565.11
2023-05-22T16:42:09.562Z,100568.02
2023-05-22T16:44:38.586Z,100570.19
2023-05-22T16:47:07.931Z,100571.52
2023-05-22T16:49:36.968Z,100575.50
2023-05-22T16:52:06.322Z,100567.11
2023-05-22T16:54:36.536Z,100565.77
2023-05-22T16:57:09.029Z,100565.38
2023-05-22T16:59:40.494Z,100571.97
2023-05-22T17:02:10.326Z,100568.75
2023-05-22T17:04:40.156Z,100576.11
2023-05-22T17:07:09.235Z,100582.63
2023-05-22T17:09:39.616Z,100578.46
2023-05-22T17:12:09.789Z,100585.82
2023-05-22T17:14:38.889Z,100580.84
2023-05-22T17:17:12.907Z,100575.02
2023-05-22T17:19:44.602Z,100585.97
2023-05-22T17:22:13.854Z,100585.39
2023-05-22T17:24:42.823Z,100577.01
2023-05-22T17:27:20.772Z,100582.73
2023-05-22T17:30:01.446Z,100582.31
2023-05-22T17:32:30.870Z,100583.73
2023-05-22T17:35:01.921Z,100579.70
2023-05-22T17:37:36.701Z,100574.03
2023-05-22T17:40:09.521Z,100576.25
2023-05-22T17:42:41.686Z,100572.25
2023-05-22T17:45:13.614Z,100576.34
2023-05-22T17:47:43.993Z,100573.39
2023-05-22T17:50:18.910Z,100576.62
2023-05-22T17:52:51.871Z,100572.73
2023-05-22T17:55:25.674Z,100570.71
2023-05-22T17:57:55.486Z,100572.95
2023-05-22T18:00:27.072Z,100566.50
2023-05-22T18:02:56.014Z,100568.80
2023-05-22T18:05:25.961Z,100558.81
2023-05-22T18:07:55.055Z,100561.27
2023-05-22T18:10:25.193Z,100563.71
2023-05-22T18:12:54.208Z,100564.52
2023-05-22T18:15:26.653Z,100567.81
2023-05-22T18:17:55.957Z,100569.56
2023-05-22T18:20:27.650Z,100568.53
2023-05-22T18:22:58.478Z,100568.56
2023-05-22T18:25:27.246Z,100567.66
2023-05-22T18:27:56.563Z,100571.95
2023-05-22T18:30:28.014Z,100568.34
2023-05-22T18:32:57.354Z,100572.48
2023-05-22T18:35:26.392Z,100563.45
2023-05-22T18:37:56.799Z,100572.85
2023-05-22T18:40:28.255Z,100573.52
2023-05-22T18:42:57.941Z,100569.63
2023-05-22T18:45:26.874Z,100582.53
2023-05-22T18:47:56.161Z,100576.10
2023-05-22T18:50:29.681Z,100573.17
2023-05-22T18:52:59.405Z,100582.46
2023-05-22T18:55:31.338Z,100577.69
2023-05-22T18:58:07.379Z,100576.45
2023-05-22T19:00:37.889Z,100577.69
2023-05-22T19:03:14.414Z,100580.73
2023-05-22T19:05:50.590Z,100585.61
2023-05-22T19:08:22.109Z,100577.30
2023-05-22T19:10:51.656Z,100583.84
2023-05-22T19:13:21.111Z,100586.02
2023-05-22T19:15:50.115Z,100579.45
2023-05-22T19:18:19.999Z,100585.92
2023-05-22T19:20:48.993Z,100588.84
2023-05-22T19:23:21.816Z,100589.94
2023-05-22T19:25:51.987Z,100583.98
2023-05-22T19:28:22.998Z,100586.78
2023-05-22T19:30:52.585Z,100586.12
2023-05-22T19:33:25.849Z,100582.83
2023-05-22T19:35:56.781Z,100587.45
2023-05-22T19:38:27.606Z,100588.51
2023-05-22T19:40:56.972Z,100583.38
2023-05-22T19:43:35.026Z,100587.03
2023-05-22T19:46:08.521Z,100580.23
2023-05-22T19:48:43.373Z,100585.63
2023-05-22T19:51:16.992Z,100581.50
2023-05-22T19:53:49.580Z,100584.33
2023-05-22T19:56:19.849Z,100581.94
2023-05-22T19:58:48.885Z,100593.47
2023-05-22T20:01:19.695Z,100587.55
2023-05-22T20:03:48.674Z,100583.37
2023-05-22T20:06:20.506Z,100584.33
2023-05-22T20:08:49.470Z,100587.96
2023-05-22T20:11:19.722Z,100587.24
2023-05-22T20:13:49.129Z,100582.11
2023-05-22T20:16:21.167Z,100577.87
2023-05-22T20:18:51.737Z,100578.86
2023-05-22T20:21:21.222Z,100579.03
2023-05-22T20:23:51.037Z,100580.01
2023-05-22T20:26:20.310Z,100574.96
2023-05-22T20:28:52.068Z,100571.61
2023-05-22T20:31:22.132Z,100570.00
2023-05-22T20:33:51.338Z,100576.23
2023-05-22T20:36:21.781Z,100578.11
2023-05-22T20:38:50.735Z,100573.81
2023-05-22T20:41:22.285Z,100576.58
2023-05-22T20:43:53.771Z,100572.33
2023-05-22T20:46:29.276Z,100573.23
2023-05-22T20:49:02.414Z,100568.07
2023-05-22T20:51:38.916Z,100567.25
2023-05-22T20:54:11.020Z,100566.49
2023-05-22T20:56:41.773Z,100560.47
2023-05-22T20:59:12.922Z,100563.13
2023-05-22T21:01:42.299Z,100563.22
2023-05-22T21:04:12.791Z,100562.44
2023-05-22T21:06:41.844Z,100569.49
2023-05-22T21:09:10.836Z,100566.08
2023-05-22T21:11:41.637Z,100566.16
2023-05-22T21:14:12.274Z,100567.10
2023-05-22T21:16:41.877Z,100568.07
2023-05-22T21:19:10.966Z,100568.08
2023-05-22T21:21:41.251Z,100555.92
2023-05-22T21:24:16.758Z,100552.46
2023-05-22T21:26:46.100Z,100563.01
2023-05-22T21:29:16.605Z,100561.42
2023-05-22T21:31:47.086Z,100560.70
2023-05-22T21:34:19.078Z,100558.20
2023-05-22T21:36:50.952Z,100557.41
2023-05-22T21:39:19.724Z,100564.41
2023-05-22T21:41:49.970Z,100567.95
2023-05-22T21:44:19.576Z,100567.95
2023-05-22T21:46:48.721Z,100566.27
2023-05-22T21:49:19.940Z,100560.19
2023-05-22T21:51:49.042Z,100566.30
2023-05-22T21:54:21.884Z,100560.22
2023-05-22T21:56:50.929Z,100563.80
2023-05-22T21:59:20.056Z,100562.15
2023-05-22T22:01:49.154Z,100563.95
2023-05-22T22:04:20.867Z,100560.57
2023-05-22T22:06:49.845Z,100562.34
2023-05-22T22:09:22.741Z,100565.02
2023-05-22T22:11:52.244Z,100565.06
2023-05-22T22:14:21.346Z,100560.78
2023-05-22T22:16:53.663Z,100562.59
2023-05-22T22:19:22.735Z,100558.28
2023-05-22T22:21:52.376Z,100562.70
2023-05-22T22:24:21.900Z,100562.73
2023-05-22T22:26:52.452Z,100557.56
2023-05-22T22:29:26.357Z,100554.98
2023-05-22T22:31:56.480Z,100553.30
2023-05-22T22:34:25.525Z,100555.09
2023-05-22T22:36:55.393Z,100548.10
2023-05-22T22:39:25.937Z,100555.97
2023-05-22T22:42:04.336Z,100558.65
2023-05-22T22:44:34.679Z,100552.61
2023-05-22T22:47:07.262Z,100555.25
2023-05-22T22:49:36.845Z,100552.67
2023-05-22T22:52:14.258Z,100552.70
2023-05-22T22:54:44.638Z,100548.36
2023-05-22T22:57:20.014Z,100546.63
2023-05-22T22:59:50.720Z,100544.08
2023-05-22T23:02:21.837Z,100551.06
2023-05-22T23:04:51.383Z,100532.81
2023-05-22T23:07:23.791Z,100538.07
2023-05-22T23:09:56.692Z,100538.07
2023-05-22T23:12:27.664Z,100532.91
2023-05-22T23:14:56.880Z,100541.63
2023-05-22T23:17:25.965Z,100530.39
2023-05-22T23:19:54.831Z,100526.11
2023-05-22T23:22:24.071Z,100528.77
2023-05-22T23:24:55.649Z,100523.58
2023-05-22T23:27:25.487Z,100524.49
2023-05-22T23:29:54.346Z,100518.42
2023-05-22T23:32:28.103Z,100527.12
2023-05-22T23:34:59.668Z,100521.09
2023-05-22T23:37:30.153Z,100513.28
2023-05-22T23:39:59.328Z,100505.51
2023-05-22T23:42:28.728Z,100512.52
2023-05-22T23:45:02.202Z,100512.53
2023-05-22T23:47:31.561Z,100509.13
2023-05-22T23:50:00.449Z,100510.96
2023-05-22T23:52:29.605Z,100510.12
2023-05-22T23:54:58.492Z,100508.42
2023-05-22T23:57:27.692Z,100512.84
2023-05-22T23:59:56.610Z,100512.91
